Time;durP1;ratioP1;P1;durP2;ratioP2;P2;SDS_P1;SDS_P2;PMS_P1;PMS_P2;Temp;Humidity;BMP_temperature;BMP_pressure;BME280_temperature;BME280_humidity;BME280_pressure;Samples;Min_cycle;Max_cycle;Signal;HPM_P1;HPM_P2
2023/03/10 00:02:06;;;;;;;0.60;0.40;;;13.40;98.10;;;;;;10135290;28;20039;-62
2023/03/10 00:06:56;;;;;;;1.17;0.45;;;13.30;98.20;;;;;;10127789;28;20043;-60
2023/03/10 00:11:47;;;;;;;0.57;0.40;;;13.40;98.20;;;;;;10140079;28;20103;-60
2023/03/10 00:16:38;;;;;;;0.85;0.43;;;13.30;98.20;;;;;;10131929;28;20033;-64
2023/03/10 00:21:30;;;;;;;1.13;0.60;;;13.40;98.30;;;;;;10139739;28;20052;-61
2023/03/10 00:26:22;;;;;;;0.60;0.40;;;13.10;98.50;;;;;;10139297;28;20398;-60
2023/03/10 00:31:18;;;;;;;0.40;0.25;;;13.00;98.70;;;;;;10125904;28;20032;-62
2023/03/10 00:36:16;;;;;;;1.55;0.57;;;13.00;98.80;;;;;;10138899;28;20066;-62
2023/03/10 00:41:13;;;;;;;0.50;0.22;;;13.10;98.80;;;;;;10121937;28;20051;-62
2023/03/10 00:46:04;;;;;;;1.00;0.90;;;13.00;98.90;;;;;;10110298;28;20041;-62
2023/03/10 00:50:55;;;;;;;1.27;0.60;;;13.00;99.10;;;;;;10104339;28;20076;-62
2023/03/10 00:56:04;;;;;;;2.03;0.80;;;13.00;99.30;;;;;;10131663;28;20024;-60
2023/03/10 01:00:55;;;;;;;1.38;0.82;;;12.90;99.50;;;;;;10110234;28;20052;-61
2023/03/10 01:05:46;;;;;;;1.30;0.68;;;12.90;99.70;;;;;;10129117;28;20045;-61
2023/03/10 01:10:37;;;;;;;2.72;0.90;;;12.70;99.90;;;;;;10126576;28;20013;-61
2023/03/10 01:15:28;;;;;;;3.30;0.90;;;12.50;99.90;;;;;;10135554;28;20051;-62
2023/03/10 01:20:19;;;;;;;0.95;0.60;;;12.40;99.90;;;;;;10138382;28;20498;-61
2023/03/10 01:25:13;;;;;;;1.20;0.90;;;12.30;99.90;;;;;;10131487;28;20105;-60
2023/03/10 01:30:04;;;;;;;2.38;0.77;;;12.50;99.90;;;;;;10100372;28;20544;-61
2023/03/10 01:34:55;;;;;;;1.33;0.82;;;12.40;99.90;;;;;;10110878;28;20036;-60
2023/03/10 01:39:46;;;;;;;2.17;0.98;;;12.30;99.90;;;;;;10101591;28;20523;-59
2023/03/10 01:44:38;;;;;;;2.88;0.80;;;12.30;99.90;;;;;;10087937;28;20094;-62
2023/03/10 01:49:42;;;;;;;1.38;0.55;;;12.30;99.90;;;;;;10103127;28;20021;-61
2023/03/10 01:54:41;;;;;;;1.35;0.70;;;12.20;99.90;;;;;;10122166;28;20070;-62
2023/03/10 01:59:33;;;;;;;0.95;0.57;;;12.20;99.90;;;;;;10137052;28;20032;-63
2023/03/10 02:04:32;;;;;;;2.13;0.60;;;12.20;99.90;;;;;;10140539;28;20041;-62
2023/03/10 02:09:24;;;;;;;1.23;1.13;;;12.20;99.90;;;;;;10142024;28;20016;-62
2023/03/10 02:14:16;;;;;;;1.40;0.52;;;12.10;99.90;;;;;;10143790;28;20596;-61
2023/03/10 02:19:15;;;;;;;1.90;0.50;;;12.10;99.90;;;;;;10144842;28;20506;-61
2023/03/10 02:24:11;;;;;;;1.05;0.65;;;12.10;99.90;;;;;;10136583;28;20021;-60
2023/03/10 02:29:05;;;;;;;3.13;0.47;;;12.00;99.90;;;;;;10130259;28;20029;-61
2023/03/10 02:33:56;;;;;;;2.70;1.65;;;12.00;99.90;;;;;;10142463;28;20025;-60
2023/03/10 02:38:47;;;;;;;2.25;0.73;;;12.00;99.90;;;;;;10126711;28;20032;-61
2023/03/10 02:43:38;;;;;;;1.05;0.70;;;12.00;99.90;;;;;;10108134;28;20129;-61
2023/03/10 02:48:32;;;;;;;1.88;0.70;;;12.00;99.90;;;;;;10110035;28;20040;-59
2023/03/10 02:53:25;;;;;;;1.27;0.80;;;12.10;99.90;;;;;;10132207;28;20032;-60
2023/03/10 02:58:17;;;;;;;1.35;0.82;;;12.00;99.90;;;;;;10142288;28;20059;-59
2023/03/10 03:03:09;;;;;;;0.95;0.73;;;12.00;99.90;;;;;;10135032;28;20029;-61
2023/03/10 03:08:00;;;;;;;0.70;0.50;;;12.00;99.90;;;;;;10141012;28;20039;-60
2023/03/10 03:12:50;;;;;;;0.50;0.50;;;12.10;99.90;;;;;;10141182;28;20035;-62
2023/03/10 03:17:41;;;;;;;0.57;0.55;;;12.00;99.90;;;;;;10129735;28;20043;-62
2023/03/10 03:22:32;;;;;;;1.02;0.50;;;12.00;99.90;;;;;;10103289;28;20036;-62
2023/03/10 03:27:22;;;;;;;1.65;0.80;;;12.10;99.90;;;;;;10115164;28;20039;-62
2023/03/10 03:32:13;;;;;;;1.48;0.50;;;12.10;99.90;;;;;;10126927;28;20017;-61
2023/03/10 03:37:03;;;;;;;1.88;0.98;;;12.20;99.90;;;;;;10088264;22;20046;-61
2023/03/10 03:41:56;;;;;;;1.77;0.73;;;12.20;99.90;;;;;;10070959;28;20032;-61
2023/03/10 03:46:46;;;;;;;0.90;0.50;;;12.20;99.90;;;;;;10075383;28;20459;-59
2023/03/10 03:51:37;;;;;;;2.20;0.70;;;12.20;99.90;;;;;;10073135;28;20067;-60
2023/03/10 03:56:27;;;;;;;2.97;0.88;;;12.10;99.90;;;;;;10058118;28;20037;-58
2023/03/10 04:01:19;;;;;;;1.13;0.70;;;12.00;99.90;;;;;;10095297;28;20049;-60
2023/03/10 04:06:10;;;;;;;1.02;0.60;;;12.00;99.90;;;;;;10083899;28;20116;-61
2023/03/10 04:11:03;;;;;;;0.80;0.43;;;12.00;99.90;;;;;;10098799;28;20024;-60
2023/03/10 04:15:58;;;;;;;1.58;0.80;;;12.00;99.90;;;;;;10093256;28;20035;-59
2023/03/10 04:20:48;;;;;;;1.30;0.70;;;12.10;99.90;;;;;;10099606;28;20083;-59
2023/03/10 04:25:41;;;;;;;1.30;0.90;;;12.10;99.90;;;;;;10098492;28;20048;-59
2023/03/10 04:30:32;;;;;;;1.38;0.60;;;12.20;99.90;;;;;;10065937;28;20357;-60
2023/03/10 04:35:23;;;;;;;2.53;0.80;;;12.20;99.90;;;;;;10087373;28;20053;-59
2023/03/10 04:40:14;;;;;;;2.95;0.70;;;12.30;99.90;;;;;;10086128;28;20031;-60
2023/03/10 04:45:05;;;;;;;0.98;0.60;;;12.30;99.90;;;;;;10076905;28;20404;-59
2023/03/10 04:49:56;;;;;;;4.55;1.50;;;12.30;99.90;;;;;;10057649;28;20022;-60
2023/03/10 04:54:46;;;;;;;1.38;0.80;;;12.20;99.90;;;;;;10096759;28;20026;-60
2023/03/10 04:59:37;;;;;;;1.17;0.70;;;12.20;99.90;;;;;;10098463;28;20036;-60
2023/03/10 05:04:28;;;;;;;0.60;0.60;;;12.20;99.90;;;;;;10092756;28;20516;-59
2023/03/10 05:09:19;;;;;;;1.30;1.20;;;12.20;99.90;;;;;;10092327;28;20108;-59
2023/03/10 05:14:11;;;;;;;1.95;1.55;;;12.10;99.90;;;;;;10085415;28;20083;-59
2023/03/10 05:19:02;;;;;;;1.63;0.85;;;12.00;99.90;;;;;;10098846;28;20558;-59
2023/03/10 05:23:53;;;;;;;1.58;0.73;;;12.00;99.90;;;;;;10087878;28;20109;-58
2023/03/10 05:28:44;;;;;;;1.17;0.60;;;11.80;99.90;;;;;;10071539;28;20033;-60
2023/03/10 05:33:35;;;;;;;0.60;0.50;;;11.70;99.90;;;;;;10071077;28;20053;-60
2023/03/10 05:38:25;;;;;;;1.05;0.63;;;11.60;99.90;;;;;;10082225;28;20033;-60
2023/03/10 05:43:16;;;;;;;1.02;0.80;;;11.60;99.90;;;;;;10105909;28;20036;-59
2023/03/10 05:48:06;;;;;;;1.38;0.60;;;11.60;99.90;;;;;;10073490;28;20088;-61
2023/03/10 05:52:57;;;;;;;1.50;0.70;;;11.60;99.90;;;;;;10084376;28;20025;-60
2023/03/10 05:57:48;;;;;;;2.47;0.77;;;11.60;99.90;;;;;;10103014;28;20017;-59
2023/03/10 06:02:39;;;;;;;0.88;0.47;;;11.40;99.90;;;;;;10100464;28;20025;-60
2023/03/10 06:07:30;;;;;;;1.40;0.63;;;11.40;99.90;;;;;;10061741;28;20033;-62
2023/03/10 06:12:20;;;;;;;1.85;0.77;;;11.50;99.90;;;;;;10081520;28;20059;-61
2023/03/10 06:17:11;;;;;;;1.08;0.77;;;11.50;99.90;;;;;;10090059;28;20017;-60
2023/03/10 06:22:02;;;;;;;1.05;0.32;;;11.60;99.90;;;;;;10091542;28;20379;-60
2023/03/10 06:26:52;;;;;;;0.43;0.43;;;11.60;99.90;;;;;;10103875;28;20037;-60
2023/03/10 06:31:43;;;;;;;1.42;0.50;;;11.60;99.90;;;;;;10076962;28;20041;-60
2023/03/10 06:36:36;;;;;;;1.35;0.70;;;11.60;99.90;;;;;;10078786;28;20148;-59
2023/03/10 06:41:26;;;;;;;1.98;0.80;;;11.60;99.90;;;;;;10102048;28;20599;-60
2023/03/10 06:46:17;;;;;;;2.63;1.10;;;11.60;99.90;;;;;;10092250;28;20029;-59
2023/03/10 06:51:10;;;;;;;2.65;0.82;;;11.60;99.90;;;;;;10070743;28;20036;-61
2023/03/10 06:56:07;;;;;;;1.73;0.50;;;11.60;99.90;;;;;;10103331;28;20028;-60
2023/03/10 07:00:57;;;;;;;1.55;0.60;;;11.70;99.90;;;;;;10095818;28;20029;-61
2023/03/10 07:05:48;;;;;;;2.20;0.60;;;11.70;99.90;;;;;;10097148;28;20115;-59
2023/03/10 07:10:39;;;;;;;3.40;0.73;;;11.60;99.90;;;;;;10097893;28;20025;-60
2023/03/10 07:15:29;;;;;;;2.47;0.57;;;11.60;99.90;;;;;;10097751;28;20028;-61
2023/03/10 07:20:21;;;;;;;1.50;0.85;;;11.60;99.90;;;;;;10097195;28;20116;-60
2023/03/10 07:25:11;;;;;;;0.98;0.40;;;11.70;99.90;;;;;;10082697;28;20495;-60
2023/03/10 07:30:03;;;;;;;1.73;0.50;;;11.70;99.90;;;;;;10065993;28;20025;-61
2023/03/10 07:34:54;;;;;;;0.90;0.38;;;11.90;99.90;;;;;;10058730;28;20061;-59
2023/03/10 07:39:44;;;;;;;1.23;0.73;;;12.00;99.90;;;;;;10062957;28;20044;-61
2023/03/10 07:44:35;;;;;;;2.13;0.85;;;12.00;99.90;;;;;;10079274;28;20029;-59
2023/03/10 07:49:25;;;;;;;3.65;0.82;;;12.10;99.90;;;;;;10064300;28;20143;-63
2023/03/10 07:54:16;;;;;;;2.33;0.73;;;12.00;99.90;;;;;;10084727;28;20511;-59
2023/03/10 07:59:07;;;;;;;5.60;1.25;;;12.00;99.90;;;;;;10090766;28;20037;-59
2023/03/10 08:03:57;;;;;;;1.65;0.73;;;12.00;99.90;;;;;;10095312;28;20027;-60
2023/03/10 08:08:49;;;;;;;3.83;1.15;;;12.00;99.90;;;;;;10096739;28;20372;-59
2023/03/10 08:13:39;;;;;;;3.35;1.23;;;12.00;99.90;;;;;;10087543;28;20023;-59
2023/03/10 08:18:31;;;;;;;3.30;1.52;;;12.00;99.90;;;;;;10096367;28;20408;-59
2023/03/10 08:23:23;;;;;;;4.88;1.23;;;12.00;99.90;;;;;;10085299;28;20043;-59
2023/03/10 08:28:13;;;;;;;5.18;0.90;;;12.00;99.90;;;;;;10085731;28;20454;-61
2023/03/10 08:33:07;;;;;;;4.22;1.02;;;12.00;99.90;;;;;;10080724;28;20171;-61
2023/03/10 08:37:58;;;;;;;1.65;0.70;;;12.00;99.90;;;;;;10078420;28;20559;-62
2023/03/10 08:42:48;;;;;;;2.88;1.17;;;12.00;99.90;;;;;;10096947;28;20136;-59
2023/03/10 08:47:39;;;;;;;2.35;0.80;;;12.10;99.90;;;;;;10075195;28;20035;-60
2023/03/10 08:52:30;;;;;;;3.67;1.00;;;12.10;99.90;;;;;;10079948;28;20025;-61
2023/03/10 08:57:21;;;;;;;2.88;1.00;;;12.10;99.90;;;;;;10076494;28;20032;-60
2023/03/10 09:02:14;;;;;;;2.50;0.82;;;12.10;99.90;;;;;;10080314;28;20027;-63
2023/03/10 09:07:04;;;;;;;1.02;0.73;;;12.10;99.90;;;;;;10098966;28;20380;-62
2023/03/10 09:11:55;;;;;;;2.22;0.73;;;12.10;99.90;;;;;;10089994;28;20091;-59
2023/03/10 09:16:46;;;;;;;2.22;0.70;;;12.10;99.90;;;;;;10111957;28;20364;-61
2023/03/10 09:21:37;;;;;;;2.38;0.50;;;12.10;99.90;;;;;;10109523;28;20032;-62
2023/03/10 09:26:28;;;;;;;0.65;0.50;;;12.10;99.90;;;;;;10106348;28;20455;-59
2023/03/10 09:31:23;;;;;;;3.08;0.80;;;12.00;99.90;;;;;;10085082;28;20055;-61
2023/03/10 09:36:14;;;;;;;2.53;0.90;;;12.00;99.90;;;;;;10106964;28;20049;-60
2023/03/10 09:41:27;;;;;;;3.53;0.90;;;11.90;99.90;;;;;;10092800;28;20079;-61
2023/03/10 09:46:24;;;;;;;3.50;0.73;;;11.80;99.90;;;;;;10085393;28;20128;-62
2023/03/10 09:51:21;;;;;;;6.40;1.15;;;11.90;99.90;;;;;;10079377;28;20021;-61
2023/03/10 09:56:16;;;;;;;2.88;1.40;;;11.90;99.90;;;;;;10111068;28;20498;-59
2023/03/10 10:01:18;;;;;;;3.70;1.25;;;12.00;99.90;;;;;;10110648;28;20465;-60
2023/03/10 10:06:15;;;;;;;1.80;0.90;;;12.00;99.90;;;;;;10105915;28;20044;-60
2023/03/10 10:11:14;;;;;;;3.63;1.67;;;12.00;99.90;;;;;;10110318;28;20103;-60
2023/03/10 10:16:30;;;;;;;3.78;0.98;;;12.00;99.90;;;;;;10110166;28;20055;-61
2023/03/10 10:21:49;;;;;;;3.67;0.65;;;12.00;99.90;;;;;;10098421;28;20432;-58
2023/03/10 10:26:40;;;;;;;1.30;0.73;;;11.90;99.90;;;;;;10100072;28;20049;-60
2023/03/10 10:31:32;;;;;;;1.10;0.50;;;11.90;99.90;;;;;;10077042;28;20051;-59
2023/03/10 10:36:33;;;;;;;1.40;0.40;;;11.90;99.90;;;;;;10101918;28;20057;-60
2023/03/10 10:41:30;;;;;;;2.25;0.60;;;12.00;99.90;;;;;;10087489;28;20021;-59
2023/03/10 10:46:27;;;;;;;1.67;0.52;;;12.20;99.90;;;;;;10089950;28;20038;-59
2023/03/10 10:51:36;;;;;;;1.25;0.55;;;12.20;99.90;;;;;;10068372;28;20117;-61
2023/03/10 10:56:28;;;;;;;0.65;0.28;;;12.30;99.90;;;;;;10101765;28;20135;-60
2023/03/10 11:01:18;;;;;;;2.85;0.40;;;12.20;99.90;;;;;;10092633;28;20005;-60
2023/03/10 11:06:28;;;;;;;1.75;0.52;;;12.20;99.90;;;;;;10101447;28;20510;-61
2023/03/10 11:11:28;;;;;;;0.38;0.25;;;12.40;99.90;;;;;;10102084;28;20537;-59
2023/03/10 11:16:37;;;;;;;0.52;0.20;;;12.50;99.90;;;;;;10096442;28;20399;-60
2023/03/10 11:21:33;;;;;;;0.55;0.40;;;12.60;99.90;;;;;;10101769;28;20025;-60
2023/03/10 11:26:30;;;;;;;;;;;12.50;99.90;;;;;;10102238;28;20118;-61
2023/03/10 11:31:58;;;;;;;0.75;0.30;;;12.60;99.90;;;;;;10074904;28;19905;-61
2023/03/10 11:37:08;;;;;;;0.50;0.50;;;13.00;99.90;;;;;;10099511;28;20049;-60
2023/03/10 11:42:19;;;;;;;1.00;0.50;;;13.00;99.90;;;;;;10084306;28;20252;-60
2023/03/10 11:47:21;;;;;;;0.10;0.10;;;12.70;99.90;;;;;;10062257;28;20037;-59
2023/03/10 11:52:17;;;;;;;4.63;1.58;;;12.50;99.90;;;;;;10082110;28;20178;-61
2023/03/10 11:57:17;;;;;;;1.67;0.80;;;12.40;99.90;;;;;;10091549;28;20026;-60
2023/03/10 12:02:28;;;;;;;0.80;0.40;;;12.20;99.90;;;;;;10094298;28;20021;-61
2023/03/10 12:07:22;;;;;;;2.58;0.52;;;12.00;99.90;;;;;;10100258;28;20545;-60
2023/03/10 12:12:18;;;;;;;0.45;0.25;;;12.40;99.90;;;;;;10089863;28;20045;-62
2023/03/10 12:17:14;;;;;;;0.30;0.20;;;12.60;99.90;;;;;;10099723;28;20021;-59
2023/03/10 12:22:36;;;;;;;0.10;0.10;;;12.60;99.90;;;;;;10099587;28;20021;-60
2023/03/10 12:27:26;;;;;;;0.73;0.20;;;13.00;99.90;;;;;;10081737;28;20052;-60
2023/03/10 12:32:45;;;;;;;0.20;0.15;;;12.90;99.90;;;;;;10075414;28;20322;-60
2023/03/10 12:37:36;;;;;;;0.47;0.20;;;12.60;99.90;;;;;;10094198;28;20055;-61
2023/03/10 12:42:32;;;;;;;1.08;0.50;;;12.40;99.90;;;;;;10078640;28;20182;-61
2023/03/10 12:47:46;;;;;;;0.28;0.22;;;12.10;99.90;;;;;;10075416;28;20377;-62
2023/03/10 12:52:43;;;;;;;1.95;0.50;;;12.10;99.90;;;;;;10080985;28;20148;-59
2023/03/10 12:57:54;;;;;;;0.28;0.20;;;12.10;99.90;;;;;;10093640;28;20033;-60
2023/03/10 13:03:10;;;;;;;0.13;0.10;;;12.00;99.90;;;;;;10098824;28;20025;-59
2023/03/10 13:08:15;;;;;;;0.20;0.20;;;12.00;99.90;;;;;;10086469;28;20147;-59
2023/03/10 13:13:07;;;;;;;0.47;0.40;;;12.00;99.90;;;;;;10098165;28;20037;-61
2023/03/10 13:18:16;;;;;;;0.28;0.17;;;12.00;99.90;;;;;;10097125;28;20496;-62
2023/03/10 13:23:21;;;;;;;0.98;0.22;;;11.90;99.90;;;;;;10080845;28;20047;-59
2023/03/10 13:28:14;;;;;;;0.10;0.10;;;11.70;99.90;;;;;;10047318;28;20038;-62
2023/03/10 13:33:21;;;;;;;0.40;0.28;;;11.60;99.90;;;;;;10057807;28;20072;-64
2023/03/10 13:38:20;;;;;;;0.22;0.10;;;11.70;99.90;;;;;;10065433;28;20056;-59
2023/03/10 13:43:41;;;;;;;0.90;0.25;;;11.80;99.90;;;;;;10068747;28;20037;-60
2023/03/10 13:48:33;;;;;;;0.10;0.10;;;11.90;99.90;;;;;;10057749;28;20046;-62
2023/03/10 13:53:25;;;;;;;0.10;0.10;;;12.00;99.90;;;;;;10071749;28;20030;-61
2023/03/10 13:58:15;;;;;;;0.70;0.30;;;12.30;99.90;;;;;;10100482;28;20025;-62
2023/03/10 14:03:07;;;;;;;0.25;0.15;;;12.40;99.90;;;;;;10088070;28;20021;-61
2023/03/10 14:07:59;;;;;;;0.28;0.28;;;11.90;99.90;;;;;;10092385;28;20052;-60
2023/03/10 14:12:52;;;;;;;0.40;0.25;;;11.90;99.90;;;;;;10104424;28;20479;-63
2023/03/10 14:17:45;;;;;;;1.08;0.32;;;11.70;99.90;;;;;;10098661;28;20053;-60
2023/03/10 14:22:40;;;;;;;0.50;0.10;;;11.60;99.90;;;;;;10104306;28;20025;-62
2023/03/10 14:27:34;;;;;;;1.67;0.50;;;11.40;99.90;;;;;;10101017;28;20037;-60
2023/03/10 14:32:26;;;;;;;1.45;0.50;;;11.30;99.90;;;;;;10073101;28;20407;-59
2023/03/10 14:37:16;;;;;;;2.88;0.75;;;11.30;99.90;;;;;;10074310;28;20172;-61
2023/03/10 14:42:28;;;;;;;0.45;0.30;;;11.20;99.90;;;;;;10093518;28;20447;-61
2023/03/10 14:47:19;;;;;;;2.97;0.82;;;11.40;99.90;;;;;;10075567;28;20030;-60
2023/03/10 14:52:15;;;;;;;2.38;0.80;;;11.70;99.90;;;;;;10078973;28;20096;-60
2023/03/10 14:57:06;;;;;;;1.73;0.70;;;12.20;99.90;;;;;;10103201;28;20029;-61
2023/03/10 15:02:03;;;;;;;2.80;0.80;;;14.00;99.90;;;;;;10094433;28;20029;-61
2023/03/10 15:06:53;;;;;;;5.65;1.38;;;15.50;99.30;;;;;;10101627;28;20348;-61
2023/03/10 15:11:44;;;;;;;1.58;0.68;;;15.60;98.60;;;;;;10102616;28;20418;-60
2023/03/10 15:16:35;;;;;;;6.25;1.42;;;17.30;97.50;;;;;;10093143;28;20057;-63
2023/03/10 15:21:25;;;;;;;5.47;1.30;;;18.60;95.70;;;;;;10102965;28;20080;-61
2023/03/10 15:26:16;;;;;;;2.88;1.17;;;15.90;95.80;;;;;;10102708;28;20040;-61
2023/03/10 15:31:07;;;;;;;1.48;0.90;;;13.10;97.50;;;;;;10088159;28;20028;-61
2023/03/10 15:35:58;;;;;;;2.63;1.23;;;12.10;97.90;;;;;;10100045;28;20071;-61
2023/03/10 15:40:49;;;;;;;1.40;1.15;;;11.70;98.10;;;;;;10088790;28;20040;-62
2023/03/10 15:45:42;;;;;;;2.53;1.00;;;16.10;96.30;;;;;;10089595;28;20421;-61
2023/03/10 15:50:33;;;;;;;3.15;0.90;;;19.40;93.80;;;;;;10066119;28;20029;-60
2023/03/10 15:55:24;;;;;;;6.07;1.42;;;18.30;92.50;;;;;;10097483;28;20070;-62
2023/03/10 16:00:17;;;;;;;3.33;0.88;;;16.60;92.70;;;;;;10087001;28;20026;-61
2023/03/10 16:05:08;;;;;;;5.03;0.90;;;18.10;91.40;;;;;;10079645;28;20130;-61
2023/03/10 16:09:59;;;;;;;3.45;0.77;;;17.40;90.70;;;;;;10096395;28;20049;-60
2023/03/10 16:14:49;;;;;;;3.60;1.10;;;16.20;90.30;;;;;;10091817;28;20052;-62
2023/03/10 16:19:40;;;;;;;1.98;0.98;;;16.80;90.00;;;;;;10099584;28;20039;-62
2023/03/10 16:24:30;;;;;;;3.55;1.70;;;15.10;90.40;;;;;;10096706;28;20498;-62
2023/03/10 16:29:21;;;;;;;3.40;1.13;;;12.80;92.00;;;;;;10081269;28;20033;-61
2023/03/10 16:34:12;;;;;;;3.63;0.95;;;11.70;92.90;;;;;;10090835;28;20095;-62
2023/03/10 16:39:09;;;;;;;5.72;0.82;;;11.50;93.40;;;;;;10083232;28;20033;-62
2023/03/10 16:44:04;;;;;;;5.10;0.90;;;11.20;93.80;;;;;;10076679;28;20029;-61
2023/03/10 16:48:56;;;;;;;8.43;2.77;;;10.90;93.90;;;;;;10064674;28;20064;-62
2023/03/10 16:53:48;;;;;;;2.67;0.85;;;10.80;94.10;;;;;;10077052;28;20094;-62
2023/03/10 16:58:38;;;;;;;3.03;1.17;;;10.90;94.20;;;;;;10098756;28;20043;-62
2023/03/10 17:03:29;;;;;;;1.75;1.10;;;10.70;94.40;;;;;;10086239;28;20108;-61
2023/03/10 17:08:21;;;;;;;2.22;1.40;;;10.60;94.60;;;;;;10087450;28;20479;-62
2023/03/10 17:13:12;;;;;;;2.00;0.95;;;10.40;95.10;;;;;;10098060;28;20452;-60
2023/03/10 17:18:02;;;;;;;1.52;0.77;;;9.90;95.80;;;;;;10087758;28;20025;-61
2023/03/10 17:22:53;;;;;;;3.10;0.68;;;9.40;97.30;;;;;;10091479;28;20033;-61
2023/03/10 17:27:44;;;;;;;3.10;1.20;;;9.10;98.20;;;;;;10098709;28;20040;-61
2023/03/10 17:32:35;;;;;;;1.65;0.60;;;9.10;99.20;;;;;;10082073;28;20025;-60
2023/03/10 17:37:26;;;;;;;1.77;0.75;;;9.10;99.40;;;;;;10087514;28;20253;-62
2023/03/10 17:42:17;;;;;;;2.85;0.73;;;9.20;99.50;;;;;;10073049;28;20215;-62
2023/03/10 17:47:07;;;;;;;2.22;1.10;;;9.20;99.50;;;;;;10085922;28;20052;-60
2023/03/10 17:51:58;;;;;;;1.23;0.70;;;9.30;99.50;;;;;;10093322;28;20392;-61
2023/03/10 17:56:49;;;;;;;4.03;1.65;;;8.60;99.90;;;;;;10105743;28;20041;-60
2023/03/10 18:01:42;;;;;;;1.77;0.90;;;8.40;99.90;;;;;;10103400;28;20017;-61
2023/03/10 18:06:34;;;;;;;0.98;0.60;;;8.50;99.90;;;;;;10094551;28;20033;-60
2023/03/10 18:11:25;;;;;;;0.90;0.57;;;8.70;99.90;;;;;;10084279;28;20104;-59
2023/03/10 18:16:22;;;;;;;3.90;0.70;;;8.80;99.90;;;;;;10102782;28;20052;-61
2023/03/10 18:21:14;;;;;;;2.30;0.90;;;8.80;99.90;;;;;;10090221;28;20028;-60
2023/03/10 18:26:09;;;;;;;1.45;0.60;;;8.80;99.90;;;;;;10104609;28;20513;-61
2023/03/10 18:31:00;;;;;;;2.45;0.88;;;8.90;99.90;;;;;;10083843;28;20033;-63
2023/03/10 18:35:51;;;;;;;2.00;1.27;;;8.90;99.90;;;;;;10098868;28;20526;-61
2023/03/10 18:40:42;;;;;;;1.02;0.65;;;9.00;99.90;;;;;;10081554;28;20080;-61
2023/03/10 18:45:34;;;;;;;1.60;1.10;;;8.80;99.90;;;;;;10075980;28;20067;-61
2023/03/10 18:50:24;;;;;;;0.85;0.70;;;8.80;99.90;;;;;;10101446;28;20025;-62
2023/03/10 18:55:15;;;;;;;1.65;1.00;;;8.90;99.90;;;;;;10096787;22;20536;-65
2023/03/10 19:00:07;;;;;;;1.50;1.00;;;8.90;99.90;;;;;;10063881;28;20022;-64
2023/03/10 19:04:59;;;;;;;2.75;1.00;;;8.90;99.90;;;;;;10079082;28;20020;-66
2023/03/10 19:09:53;;;;;;;3.85;1.45;;;8.80;99.90;;;;;;10098895;28;20447;-66
2023/03/10 19:14:44;;;;;;;1.65;1.15;;;8.80;99.90;;;;;;10088328;28;20298;-63
2023/03/10 19:19:34;;;;;;;2.08;0.98;;;8.70;99.90;;;;;;10102590;28;20329;-63
2023/03/10 19:24:25;;;;;;;1.95;1.17;;;8.60;99.80;;;;;;10101113;28;20033;-64
2023/03/10 19:29:15;;;;;;;2.08;1.00;;;8.50;99.70;;;;;;10102409;28;20036;-66
2023/03/10 19:34:06;;;;;;;1.48;1.38;;;8.50;99.70;;;;;;10101979;28;20025;-66
2023/03/10 19:38:57;;;;;;;1.08;0.80;;;8.30;99.70;;;;;;10100770;28;20479;-63
2023/03/10 19:43:49;;;;;;;1.17;0.93;;;8.00;99.60;;;;;;10076680;28;20030;-64
2023/03/10 19:48:40;;;;;;;0.73;0.57;;;7.90;99.40;;;;;;10077872;28;20064;-63
2023/03/10 19:53:32;;;;;;;1.13;1.00;;;7.70;99.20;;;;;;10053850;28;20040;-63
2023/03/10 19:58:23;;;;;;;0.90;0.75;;;7.70;99.30;;;;;;10072302;28;20395;-62
2023/03/10 20:03:15;;;;;;;1.20;0.70;;;7.70;99.30;;;;;;10082487;28;20037;-63
2023/03/10 20:08:07;;;;;;;1.67;0.80;;;7.60;99.40;;;;;;10095505;28;20141;-64
2023/03/10 20:12:58;;;;;;;1.75;1.10;;;7.60;99.30;;;;;;10102196;28;20067;-63
2023/03/10 20:17:49;;;;;;;0.68;0.68;;;7.60;99.30;;;;;;10099127;28;20490;-65
2023/03/10 20:22:42;;;;;;;2.78;1.00;;;7.60;99.40;;;;;;10098912;28;20124;-64
2023/03/10 20:27:33;;;;;;;1.45;1.00;;;7.50;99.40;;;;;;10100694;28;20033;-66
2023/03/10 20:32:24;;;;;;;1.33;1.00;;;7.40;99.40;;;;;;10101302;28;20487;-64
2023/03/10 20:37:14;;;;;;;1.77;1.00;;;7.50;99.50;;;;;;10087364;28;20080;-65
2023/03/10 20:42:06;;;;;;;1.20;0.75;;;7.40;99.50;;;;;;10069384;28;20033;-67
2023/03/10 20:46:57;;;;;;;1.45;1.10;;;7.40;99.50;;;;;;10081926;28;20098;-65
2023/03/10 20:51:48;;;;;;;2.05;0.80;;;7.30;99.60;;;;;;10094836;28;20071;-65
2023/03/10 20:56:38;;;;;;;2.13;0.90;;;7.30;99.50;;;;;;10098783;28;20064;-64
2023/03/10 21:01:29;;;;;;;2.17;1.83;;;7.20;99.60;;;;;;10080119;28;20542;-66
2023/03/10 21:06:24;;;;;;;1.48;1.33;;;7.20;99.50;;;;;;10058211;28;20120;-65
2023/03/10 21:11:16;;;;;;;1.90;0.80;;;7.10;99.50;;;;;;10093879;28;20233;-64
2023/03/10 21:16:08;;;;;;;4.88;1.30;;;7.10;99.70;;;;;;10074529;28;20076;-66
2023/03/10 21:21:05;;;;;;;1.20;0.80;;;7.10;99.60;;;;;;10078159;28;20025;-65
2023/03/10 21:25:57;;;;;;;1.92;1.02;;;7.00;99.70;;;;;;10098087;28;20037;-65
2023/03/10 21:30:47;;;;;;;1.15;0.73;;;7.00;99.70;;;;;;10097805;28;20021;-64
2023/03/10 21:35:39;;;;;;;1.70;1.13;;;6.90;99.60;;;;;;10071166;28;20022;-64
2023/03/10 21:40:29;;;;;;;0.95;0.75;;;6.80;99.60;;;;;;10093229;28;20021;-65
2023/03/10 21:45:23;;;;;;;1.77;1.27;;;6.70;99.50;;;;;;10076445;28;20108;-64
2023/03/10 21:50:15;;;;;;;2.22;0.95;;;6.70;99.50;;;;;;10084818;28;20122;-63
2023/03/10 21:55:07;;;;;;;2.17;1.00;;;6.60;99.40;;;;;;10097547;28;20049;-65
2023/03/10 21:59:57;;;;;;;1.35;0.77;;;6.50;99.50;;;;;;10085397;28;20352;-64
2023/03/10 22:04:48;;;;;;;1.65;0.73;;;6.50;99.30;;;;;;10097443;28;20021;-63
2023/03/10 22:09:41;;;;;;;2.55;1.13;;;6.50;99.40;;;;;;10086431;28;20036;-65
2023/03/10 22:14:32;;;;;;;5.18;2.85;;;6.40;99.40;;;;;;10096343;28;20040;-65
2023/03/10 22:19:23;;;;;;;24.00;10.63;;;6.40;99.40;;;;;;10100850;28;20025;-65
2023/03/10 22:24:14;;;;;;;1.52;1.13;;;6.30;99.30;;;;;;10105106;28;20104;-63
2023/03/10 22:29:04;;;;;;;1.50;1.20;;;6.30;99.30;;;;;;10102413;28;20119;-63
2023/03/10 22:33:55;;;;;;;0.93;0.80;;;6.30;99.30;;;;;;10085391;28;20029;-66
2023/03/10 22:38:45;;;;;;;1.30;0.93;;;6.30;99.30;;;;;;10104177;28;20055;-65
2023/03/10 22:43:36;;;;;;;0.95;0.73;;;6.30;99.20;;;;;;10080913;28;20203;-65
2023/03/10 22:48:27;;;;;;;1.10;0.70;;;6.20;99.10;;;;;;10081580;28;20050;-65
2023/03/10 22:53:19;;;;;;;1.90;0.70;;;6.30;99.10;;;;;;10101338;28;20522;-65
2023/03/10 22:58:10;;;;;;;4.65;1.20;;;6.20;99.20;;;;;;10097368;28;20057;-64
2023/03/10 23:03:03;;;;;;;2.70;1.10;;;6.10;99.10;;;;;;10100953;28;20067;-66
2023/03/10 23:07:54;;;;;;;1.17;0.90;;;6.10;99.10;;;;;;10096396;28;20542;-65
2023/03/10 23:12:44;;;;;;;0.77;0.63;;;6.10;99.00;;;;;;10098323;28;20031;-65
2023/03/10 23:17:35;;;;;;;1.05;0.77;;;6.00;99.00;;;;;;10102609;28;20106;-65
2023/03/10 23:22:26;;;;;;;1.23;0.80;;;5.90;99.00;;;;;;10075305;28;20025;-66
2023/03/10 23:27:17;;;;;;;1.17;0.80;;;5.90;99.00;;;;;;10093141;28;20045;-66
2023/03/10 23:32:08;;;;;;;1.17;0.93;;;5.90;99.00;;;;;;10089408;28;20033;-66
2023/03/10 23:36:58;;;;;;;1.42;0.63;;;5.80;98.90;;;;;;10101843;28;20025;-65
2023/03/10 23:41:49;;;;;;;1.15;0.70;;;5.90;98.90;;;;;;10095285;28;20026;-67
2023/03/10 23:46:40;;;;;;;2.65;1.08;;;5.80;98.90;;;;;;10077697;28;20037;-65
2023/03/10 23:51:30;;;;;;;2.67;1.00;;;5.90;98.90;;;;;;10096419;28;20103;-67
2023/03/10 23:56:21;;;;;;;1.80;1.00;;;5.90;98.90;;;;;;10100402;28;20048;-67
